This is the latest recevied weather packets stored in our database for station/object R2AJV-13. If no packets are shown the sender has not sent any weather packets the latest 10 day(s).
| Time | Temp. | Humidity | Pressure | Rain* | Wind** | Luminosity | Snow |
|---|---|---|---|---|---|---|---|
| 1777717830 | 13.89° C | 59% | 1003.1 hPa | 0 mm | - | - | - |
| 1777716919 | 14.44° C | 59% | 1003.2 hPa | 0 mm | - | - | - |
| 1777716068 | 13.89° C | 59% | 1003.3 hPa | 0 mm | - | - | - |
| 1777715157 | 12.78° C | 63% | 1003.4 hPa | 0 mm | - | - | - |
| 1777714254 | 12.78° C | 62% | 1003.5 hPa | 0 mm | - | - | - |
| 1777713342 | 12.22° C | 63% | 1003.8 hPa | 0 mm | - | - | - |
| 1777712464 | 11.67° C | 64% | 1003.9 hPa | 0 mm | - | - | - |
| 1777711553 | 11.11° C | 66% | 1004.1 hPa | 0 mm | - | - | - |
| 1777710643 | 11.11° C | 65% | 1004.2 hPa | 0 mm | - | - | - |
| 1777709734 | 11.11° C | 64% | 1004.4 hPa | 0 mm | - | - | - |
| 1777708823 | 11.67° C | 64% | 1004.4 hPa | 0 mm | - | - | - |
| 1777707918 | 10.56° C | 65% | 1004.5 hPa | 0 mm | - | - | - |
| 1777707067 | 10° C | 67% | 1004.8 hPa | 0 mm | - | - | - |
| 1777706156 | 10° C | 67% | 1004.7 hPa | 0 mm | - | - | - |
| 1777705246 | 10° C | 66% | 1004.9 hPa | 0 mm | - | - | - |
| 1777704334 | 10° C | 67% | 1004.8 hPa | 0 mm | - | - | - |
| 1777703429 | 10° C | 67% | 1004.6 hPa | 0 mm | - | - | - |
| 1777702518 | 9.44° C | 69% | 1004.7 hPa | 0 mm | - | - | - |
| 1777701669 | 8.89° C | 72% | 1004.7 hPa | 0 mm | - | - | - |
| 1777632334 | 10.56° C | 41% | 1005.2 hPa | 0 mm | - | - | - |
| 1777631429 | 11.11° C | 38% | 1005.3 hPa | 0 mm | - | - | - |
| 1777630520 | 10.56° C | 38% | 1005.4 hPa | 0 mm | - | - | - |
| 1777629668 | 10° C | 41% | 1005.3 hPa | 0 mm | - | - | - |
| 1777628758 | 9.44° C | 43% | 1005.4 hPa | 0 mm | - | - | - |
| 1777627853 | 8.89° C | 48% | 1005.4 hPa | 0 mm | - | - | - |
* Rain latest hour (hover to see other rain measurements)
** Current wind speed in m/s (hover to see current wind gust speed)